Airfield :
LOGIN :

Register | Disclaimer

   EN    FR    IT 

 










Legend :    VFR   Marginal VFR   IFR   Intensive IFR   Very Intensive IFR
Visi :
Ceiling :
>= 8 km
>= 3000ft
5 to 8 km
1000 to 3000 ft
1500m to 5 km
500 to 1000 ft
800 to 1500m
200 to 500 ft
< 800m
< 200 ft
Symbols :   Thunderstorms  Fog  Heavy snow  Heavy precipitations  Wind > 20 kt
SIGMETs :     Misc.  Thunderstorms  Icing  Turbulence  Mountain Waves  Volcanic Ashes






- Airport Elevation : 82 ft
- IATA code : ALG


DAAG - Alger Houari Boumedienne

CURRENT METAR :
  • 250830Z 09004KT 030V170 9999 FEW020 BKN200 24/16 Q1024

EXPIRED METARs :
  • 250800Z 10003KT 050V180 9999 FEW020 BKN200 22/17 Q1024
  • 250730Z VRB01KT 9999 FEW020 SCT036 21/18 Q1024
  • 250700Z VRB02KT 9999 FEW020 SCT036 19/18 Q1024
  • 250630Z 00000KT 9999 FEW010 SCT036 18/17 Q1024
  • 250600Z 24001KT 9999 FEW010 SCT036 18/17 Q1024

TAF TAF DAAG
Valid from the 25 at 06:00 until the 26 at 06:00 UTC


250500Z 2506/2606 VRB02KT 8000 FEW020 SCT040
PROB30
TEMPO 2506/2516 FEW030TCU
BECMG 2508/2511 04012KT
BECMG 2520/2523 VRB02KT



MET'MAP, your aeronautical weather chart ! - Copyright ORBIFLY December 2007 - Disclaimer

ORBIFLY MET'MAP TEAM :

Programming & Development : Alexandra Zaïnal
Concept & original design : Baudouin d'Aumeries
Assistance for programming : Marc-Olivier Méhu
Technical & hardware support : Manuel Goepfert

Contact : metmap@orbifly.com




SOURCES & CREDITS :

   NOAA